sensor_id;sensor_type;location;lat;lon;timestamp;temperature;humidity
33825;DHT22;20127;48.962;8.342;2022-12-18T00:02:32;-9.80;99.90
33825;DHT22;20127;48.962;8.342;2022-12-18T00:05:35;-9.80;99.90
33825;DHT22;20127;48.962;8.342;2022-12-18T00:08:38;-9.80;99.90
33825;DHT22;20127;48.962;8.342;2022-12-18T00:11:39;-9.90;99.90
33825;DHT22;20127;48.962;8.342;2022-12-18T00:14:41;-9.90;99.90
33825;DHT22;20127;48.962;8.342;2022-12-18T00:17:43;-9.80;99.90
33825;DHT22;20127;48.962;8.342;2022-12-18T00:20:46;-9.80;99.90
33825;DHT22;20127;48.962;8.342;2022-12-18T00:23:49;-9.80;99.90
33825;DHT22;20127;48.962;8.342;2022-12-18T00:26:51;-9.80;99.90
33825;DHT22;20127;48.962;8.342;2022-12-18T00:29:52;-9.90;99.90
33825;DHT22;20127;48.962;8.342;2022-12-18T00:32:54;-10.00;99.90
33825;DHT22;20127;48.962;8.342;2022-12-18T00:36:01;-10.00;99.90
33825;DHT22;20127;48.962;8.342;2022-12-18T00:39:04;-10.10;99.90
33825;DHT22;20127;48.962;8.342;2022-12-18T00:42:07;-10.10;99.90
33825;DHT22;20127;48.962;8.342;2022-12-18T00:45:27;-10.10;99.90
33825;DHT22;20127;48.962;8.342;2022-12-18T00:48:29;-10.10;99.90
33825;DHT22;20127;48.962;8.342;2022-12-18T00:51:32;-10.10;99.90
33825;DHT22;20127;48.962;8.342;2022-12-18T00:54:34;-10.10;99.90
33825;DHT22;20127;48.962;8.342;2022-12-18T00:57:36;-10.10;99.90
33825;DHT22;20127;48.962;8.342;2022-12-18T01:00:38;-10.10;99.90
33825;DHT22;20127;48.962;8.342;2022-12-18T01:03:39;-10.10;99.90
33825;DHT22;20127;48.962;8.342;2022-12-18T01:06:42;-10.10;99.90
33825;DHT22;20127;48.962;8.342;2022-12-18T01:09:44;-10.10;99.90
33825;DHT22;20127;48.962;8.342;2022-12-18T01:12:46;-10.00;99.90
33825;DHT22;20127;48.962;8.342;2022-12-18T01:15:48;-10.10;99.90
33825;DHT22;20127;48.962;8.342;2022-12-18T01:18:52;-10.10;99.90
33825;DHT22;20127;48.962;8.342;2022-12-18T01:21:56;-10.00;99.90
33825;DHT22;20127;48.962;8.342;2022-12-18T01:24:58;-9.90;99.90
33825;DHT22;20127;48.962;8.342;2022-12-18T01:28:00;-9.90;99.90
33825;DHT22;20127;48.962;8.342;2022-12-18T01:31:13;-9.80;99.90
33825;DHT22;20127;48.962;8.342;2022-12-18T01:34:15;-9.80;99.90
33825;DHT22;20127;48.962;8.342;2022-12-18T01:37:18;-9.70;99.90
33825;DHT22;20127;48.962;8.342;2022-12-18T01:40:19;-9.70;99.90
33825;DHT22;20127;48.962;8.342;2022-12-18T01:43:21;-9.70;99.90
33825;DHT22;20127;48.962;8.342;2022-12-18T01:46:32;-9.70;99.90
33825;DHT22;20127;48.962;8.342;2022-12-18T01:49:33;-9.70;99.90
33825;DHT22;20127;48.962;8.342;2022-12-18T01:52:40;-9.70;99.90
33825;DHT22;20127;48.962;8.342;2022-12-18T01:55:51;-9.70;99.90
33825;DHT22;20127;48.962;8.342;2022-12-18T01:58:58;-9.70;99.90
33825;DHT22;20127;48.962;8.342;2022-12-18T02:02:01;-9.60;99.90
33825;DHT22;20127;48.962;8.342;2022-12-18T02:05:04;-9.60;99.90
33825;DHT22;20127;48.962;8.342;2022-12-18T02:08:12;-9.70;99.90
33825;DHT22;20127;48.962;8.342;2022-12-18T02:11:22;-9.70;99.90
33825;DHT22;20127;48.962;8.342;2022-12-18T02:14:31;-9.70;99.90
33825;DHT22;20127;48.962;8.342;2022-12-18T02:17:38;-9.70;99.90
33825;DHT22;20127;48.962;8.342;2022-12-18T02:20:44;-9.70;99.90
33825;DHT22;20127;48.962;8.342;2022-12-18T02:23:54;-9.70;99.90
33825;DHT22;20127;48.962;8.342;2022-12-18T02:27:01;-9.80;99.90
33825;DHT22;20127;48.962;8.342;2022-12-18T02:30:05;-9.90;99.90
33825;DHT22;20127;48.962;8.342;2022-12-18T02:33:08;-9.90;99.90
33825;DHT22;20127;48.962;8.342;2022-12-18T02:36:13;-9.90;99.90
33825;DHT22;20127;48.962;8.342;2022-12-18T02:39:16;-9.90;99.90
33825;DHT22;20127;48.962;8.342;2022-12-18T02:42:20;-10.00;99.90
33825;DHT22;20127;48.962;8.342;2022-12-18T02:45:22;-10.00;99.90
33825;DHT22;20127;48.962;8.342;2022-12-18T02:48:28;-10.00;99.90
33825;DHT22;20127;48.962;8.342;2022-12-18T02:51:35;-10.10;99.90
33825;DHT22;20127;48.962;8.342;2022-12-18T02:54:52;-10.10;99.90
33825;DHT22;20127;48.962;8.342;2022-12-18T02:58:03;-10.00;99.90
33825;DHT22;20127;48.962;8.342;2022-12-18T03:01:10;-10.10;99.90
33825;DHT22;20127;48.962;8.342;2022-12-18T03:04:19;-10.10;99.90
33825;DHT22;20127;48.962;8.342;2022-12-18T03:07:27;-10.20;99.90
33825;DHT22;20127;48.962;8.342;2022-12-18T03:10:38;-10.20;99.90
33825;DHT22;20127;48.962;8.342;2022-12-18T03:13:45;-10.20;99.90
33825;DHT22;20127;48.962;8.342;2022-12-18T03:16:53;-10.20;99.90
33825;DHT22;20127;48.962;8.342;2022-12-18T03:19:59;-10.10;99.90
33825;DHT22;20127;48.962;8.342;2022-12-18T03:23:07;-10.10;99.90
33825;DHT22;20127;48.962;8.342;2022-12-18T03:26:17;-10.10;99.90
33825;DHT22;20127;48.962;8.342;2022-12-18T03:29:24;-10.20;99.90
33825;DHT22;20127;48.962;8.342;2022-12-18T03:32:30;-10.20;99.90
33825;DHT22;20127;48.962;8.342;2022-12-18T03:35:37;-10.30;99.90
33825;DHT22;20127;48.962;8.342;2022-12-18T03:38:40;-10.30;99.90
33825;DHT22;20127;48.962;8.342;2022-12-18T03:41:44;-10.20;99.90
33825;DHT22;20127;48.962;8.342;2022-12-18T03:44:54;-10.30;99.90
33825;DHT22;20127;48.962;8.342;2022-12-18T03:48:03;-10.20;99.90
33825;DHT22;20127;48.962;8.342;2022-12-18T03:51:10;-10.20;99.90
33825;DHT22;20127;48.962;8.342;2022-12-18T03:54:13;-10.10;99.90
33825;DHT22;20127;48.962;8.342;2022-12-18T03:57:17;-9.90;99.90
33825;DHT22;20127;48.962;8.342;2022-12-18T04:00:21;-9.70;99.90
33825;DHT22;20127;48.962;8.342;2022-12-18T04:03:24;-9.60;99.90
33825;DHT22;20127;48.962;8.342;2022-12-18T04:06:26;-9.40;99.90
33825;DHT22;20127;48.962;8.342;2022-12-18T04:09:30;-9.20;99.90
33825;DHT22;20127;48.962;8.342;2022-12-18T04:12:32;-9.00;99.90
33825;DHT22;20127;48.962;8.342;2022-12-18T04:15:36;-8.80;99.90
33825;DHT22;20127;48.962;8.342;2022-12-18T04:18:39;-8.60;99.90
33825;DHT22;20127;48.962;8.342;2022-12-18T04:21:40;-8.50;99.90
33825;DHT22;20127;48.962;8.342;2022-12-18T04:24:42;-8.30;99.90
33825;DHT22;20127;48.962;8.342;2022-12-18T04:27:44;-8.10;99.90
33825;DHT22;20127;48.962;8.342;2022-12-18T04:30:49;-8.00;99.90
33825;DHT22;20127;48.962;8.342;2022-12-18T04:33:51;-7.80;99.90
33825;DHT22;20127;48.962;8.342;2022-12-18T04:36:53;-7.70;99.90
33825;DHT22;20127;48.962;8.342;2022-12-18T04:39:55;-7.60;99.90
33825;DHT22;20127;48.962;8.342;2022-12-18T04:42:56;-7.50;99.90
33825;DHT22;20127;48.962;8.342;2022-12-18T04:46:03;-7.40;99.90
33825;DHT22;20127;48.962;8.342;2022-12-18T04:49:05;-7.30;99.90
33825;DHT22;20127;48.962;8.342;2022-12-18T04:52:09;-7.30;99.90
33825;DHT22;20127;48.962;8.342;2022-12-18T04:55:11;-7.10;99.90
33825;DHT22;20127;48.962;8.342;2022-12-18T04:58:13;-6.90;99.90
33825;DHT22;20127;48.962;8.342;2022-12-18T05:01:17;-7.00;99.90
33825;DHT22;20127;48.962;8.342;2022-12-18T05:04:19;-7.00;99.90
33825;DHT22;20127;48.962;8.342;2022-12-18T05:07:20;-6.80;99.90
33825;DHT22;20127;48.962;8.342;2022-12-18T05:10:22;-6.80;99.90
33825;DHT22;20127;48.962;8.342;2022-12-18T05:13:24;-6.70;99.90
33825;DHT22;20127;48.962;8.342;2022-12-18T05:16:27;-6.60;99.90
33825;DHT22;20127;48.962;8.342;2022-12-18T05:19:28;-6.60;99.90
33825;DHT22;20127;48.962;8.342;2022-12-18T05:22:30;-6.50;99.90
33825;DHT22;20127;48.962;8.342;2022-12-18T05:25:32;-6.50;99.90
33825;DHT22;20127;48.962;8.342;2022-12-18T05:28:35;-6.40;99.90
33825;DHT22;20127;48.962;8.342;2022-12-18T05:31:38;-6.40;99.90
33825;DHT22;20127;48.962;8.342;2022-12-18T05:34:40;-6.30;99.90
33825;DHT22;20127;48.962;8.342;2022-12-18T05:37:42;-6.20;99.90
33825;DHT22;20127;48.962;8.342;2022-12-18T05:40:43;-6.20;99.90
33825;DHT22;20127;48.962;8.342;2022-12-18T05:43:45;-6.10;99.90
33825;DHT22;20127;48.962;8.342;2022-12-18T05:46:48;-6.10;99.90
33825;DHT22;20127;48.962;8.342;2022-12-18T05:49:50;-6.10;99.90
33825;DHT22;20127;48.962;8.342;2022-12-18T05:52:51;-6.00;99.90
33825;DHT22;20127;48.962;8.342;2022-12-18T05:55:53;-6.00;99.90
33825;DHT22;20127;48.962;8.342;2022-12-18T05:58:55;-5.90;99.90
33825;DHT22;20127;48.962;8.342;2022-12-18T06:01:58;-5.90;99.90
33825;DHT22;20127;48.962;8.342;2022-12-18T06:05:00;-5.90;99.90
33825;DHT22;20127;48.962;8.342;2022-12-18T06:08:02;-5.90;99.90
33825;DHT22;20127;48.962;8.342;2022-12-18T06:11:03;-5.90;99.90
33825;DHT22;20127;48.962;8.342;2022-12-18T06:14:06;-5.80;99.90
33825;DHT22;20127;48.962;8.342;2022-12-18T06:17:09;-5.80;99.90
33825;DHT22;20127;48.962;8.342;2022-12-18T06:20:11;-5.80;99.90
33825;DHT22;20127;48.962;8.342;2022-12-18T06:23:12;-5.80;99.90
33825;DHT22;20127;48.962;8.342;2022-12-18T06:26:14;-5.70;99.90
33825;DHT22;20127;48.962;8.342;2022-12-18T06:29:16;-5.70;99.90
33825;DHT22;20127;48.962;8.342;2022-12-18T06:32:19;-5.70;99.90
33825;DHT22;20127;48.962;8.342;2022-12-18T06:35:21;-5.70;99.90
33825;DHT22;20127;48.962;8.342;2022-12-18T06:38:22;-5.70;99.90
33825;DHT22;20127;48.962;8.342;2022-12-18T06:41:24;-5.60;99.90
33825;DHT22;20127;48.962;8.342;2022-12-18T06:44:26;-5.70;99.90
33825;DHT22;20127;48.962;8.342;2022-12-18T06:47:29;-5.80;99.90
33825;DHT22;20127;48.962;8.342;2022-12-18T06:50:30;-5.90;99.90
33825;DHT22;20127;48.962;8.342;2022-12-18T06:53:33;-5.80;99.90
33825;DHT22;20127;48.962;8.342;2022-12-18T06:56:34;-5.80;99.90
33825;DHT22;20127;48.962;8.342;2022-12-18T06:59:36;-5.60;99.90
33825;DHT22;20127;48.962;8.342;2022-12-18T07:02:39;-5.70;99.90
33825;DHT22;20127;48.962;8.342;2022-12-18T07:05:41;-5.70;99.90
33825;DHT22;20127;48.962;8.342;2022-12-18T07:08:43;-5.60;99.90
33825;DHT22;20127;48.962;8.342;2022-12-18T07:11:44;-5.60;99.90
33825;DHT22;20127;48.962;8.342;2022-12-18T07:14:46;-5.50;99.90
33825;DHT22;20127;48.962;8.342;2022-12-18T07:17:49;-5.40;99.90
33825;DHT22;20127;48.962;8.342;2022-12-18T07:20:51;-5.40;99.90
33825;DHT22;20127;48.962;8.342;2022-12-18T07:23:53;-5.40;99.90
33825;DHT22;20127;48.962;8.342;2022-12-18T07:26:54;-5.40;99.90
33825;DHT22;20127;48.962;8.342;2022-12-18T07:29:56;-5.40;99.90
33825;DHT22;20127;48.962;8.342;2022-12-18T07:32:59;-5.40;99.90
33825;DHT22;20127;48.962;8.342;2022-12-18T07:36:01;-5.40;99.90
33825;DHT22;20127;48.962;8.342;2022-12-18T07:39:03;-5.40;99.90
33825;DHT22;20127;48.962;8.342;2022-12-18T07:42:08;-5.40;99.90
33825;DHT22;20127;48.962;8.342;2022-12-18T07:45:30;-5.40;99.90
33825;DHT22;20127;48.962;8.342;2022-12-18T07:48:33;-5.40;99.90
33825;DHT22;20127;48.962;8.342;2022-12-18T07:51:35;-5.40;99.90
33825;DHT22;20127;48.962;8.342;2022-12-18T07:54:37;-5.30;99.90
33825;DHT22;20127;48.962;8.342;2022-12-18T07:57:39;-5.30;99.90
33825;DHT22;20127;48.962;8.342;2022-12-18T08:00:40;-5.30;99.90
33825;DHT22;20127;48.962;8.342;2022-12-18T08:03:44;-5.30;99.90
33825;DHT22;20127;48.962;8.342;2022-12-18T08:06:46;-5.30;99.90
33825;DHT22;20127;48.962;8.342;2022-12-18T08:09:47;-5.20;99.90
33825;DHT22;20127;48.962;8.342;2022-12-18T08:12:50;-5.20;99.90
33825;DHT22;20127;48.962;8.342;2022-12-18T08:15:58;-5.20;99.90
33825;DHT22;20127;48.962;8.342;2022-12-18T08:19:02;-5.20;99.90
33825;DHT22;20127;48.962;8.342;2022-12-18T08:22:04;-5.10;99.90
33825;DHT22;20127;48.962;8.342;2022-12-18T08:25:06;-5.20;99.90
33825;DHT22;20127;48.962;8.342;2022-12-18T08:28:08;-5.20;99.90
33825;DHT22;20127;48.962;8.342;2022-12-18T08:31:10;-5.20;99.90
33825;DHT22;20127;48.962;8.342;2022-12-18T08:34:13;-5.20;99.90
33825;DHT22;20127;48.962;8.342;2022-12-18T08:37:15;-5.20;99.90
33825;DHT22;20127;48.962;8.342;2022-12-18T08:40:17;-5.10;99.90
33825;DHT22;20127;48.962;8.342;2022-12-18T08:43:18;-5.00;99.90
33825;DHT22;20127;48.962;8.342;2022-12-18T08:46:39;-4.80;99.90
33825;DHT22;20127;48.962;8.342;2022-12-18T08:49:42;-4.60;99.90
33825;DHT22;20127;48.962;8.342;2022-12-18T08:52:44;-4.60;99.90
33825;DHT22;20127;48.962;8.342;2022-12-18T08:55:45;-4.70;99.90
33825;DHT22;20127;48.962;8.342;2022-12-18T08:58:47;-4.70;99.90
33825;DHT22;20127;48.962;8.342;2022-12-18T09:01:49;-4.70;99.90
33825;DHT22;20127;48.962;8.342;2022-12-18T09:04:52;-4.70;99.90
33825;DHT22;20127;48.962;8.342;2022-12-18T09:07:54;-4.60;99.90
33825;DHT22;20127;48.962;8.342;2022-12-18T09:10:55;-4.70;99.90
33825;DHT22;20127;48.962;8.342;2022-12-18T09:13:58;-4.80;99.90
33825;DHT22;20127;48.962;8.342;2022-12-18T09:17:00;-4.90;99.90
33825;DHT22;20127;48.962;8.342;2022-12-18T09:20:04;-4.60;99.90
33825;DHT22;20127;48.962;8.342;2022-12-18T09:23:06;-4.50;99.90
33825;DHT22;20127;48.962;8.342;2022-12-18T09:26:09;-4.50;99.90
33825;DHT22;20127;48.962;8.342;2022-12-18T09:29:10;-4.40;99.90
33825;DHT22;20127;48.962;8.342;2022-12-18T09:32:12;-4.40;99.90
33825;DHT22;20127;48.962;8.342;2022-12-18T09:35:16;-4.30;99.90
33825;DHT22;20127;48.962;8.342;2022-12-18T09:38:19;-4.20;99.90
33825;DHT22;20127;48.962;8.342;2022-12-18T09:41:39;-4.20;99.90
33825;DHT22;20127;48.962;8.342;2022-12-18T09:44:44;-4.10;99.90
33825;DHT22;20127;48.962;8.342;2022-12-18T09:47:48;-4.10;99.90
33825;DHT22;20127;48.962;8.342;2022-12-18T09:50:57;-4.00;99.90
33825;DHT22;20127;48.962;8.342;2022-12-18T09:54:03;-3.90;99.90
33825;DHT22;20127;48.962;8.342;2022-12-18T09:57:05;-3.90;99.90
33825;DHT22;20127;48.962;8.342;2022-12-18T10:00:15;-3.90;99.90
33825;DHT22;20127;48.962;8.342;2022-12-18T10:03:18;-3.80;99.90
33825;DHT22;20127;48.962;8.342;2022-12-18T10:06:23;-3.80;99.90
33825;DHT22;20127;48.962;8.342;2022-12-18T10:09:31;-3.90;99.90
33825;DHT22;20127;48.962;8.342;2022-12-18T10:12:38;-3.90;99.90
33825;DHT22;20127;48.962;8.342;2022-12-18T10:15:54;-3.90;99.90
33825;DHT22;20127;48.962;8.342;2022-12-18T10:19:16;-3.80;99.90
33825;DHT22;20127;48.962;8.342;2022-12-18T10:22:30;-3.70;99.90
33825;DHT22;20127;48.962;8.342;2022-12-18T10:25:38;-3.70;99.90
33825;DHT22;20127;48.962;8.342;2022-12-18T10:28:43;-3.60;99.90
33825;DHT22;20127;48.962;8.342;2022-12-18T10:31:45;-3.60;99.90
33825;DHT22;20127;48.962;8.342;2022-12-18T10:34:47;-3.70;99.90
33825;DHT22;20127;48.962;8.342;2022-12-18T10:38:01;-3.70;99.90
33825;DHT22;20127;48.962;8.342;2022-12-18T10:41:05;-3.70;99.90
33825;DHT22;20127;48.962;8.342;2022-12-18T10:44:17;-3.60;99.90
33825;DHT22;20127;48.962;8.342;2022-12-18T10:47:19;-3.60;99.90
33825;DHT22;20127;48.962;8.342;2022-12-18T10:50:29;-3.40;99.90
33825;DHT22;20127;48.962;8.342;2022-12-18T10:53:34;-3.30;99.90
33825;DHT22;20127;48.962;8.342;2022-12-18T10:56:36;-3.20;99.90
33825;DHT22;20127;48.962;8.342;2022-12-18T10:59:50;-3.20;99.90
33825;DHT22;20127;48.962;8.342;2022-12-18T11:02:53;-3.10;99.90
33825;DHT22;20127;48.962;8.342;2022-12-18T11:06:02;-3.10;99.90
33825;DHT22;20127;48.962;8.342;2022-12-18T11:09:20;-3.00;99.90
33825;DHT22;20127;48.962;8.342;2022-12-18T11:12:22;-3.00;99.90
33825;DHT22;20127;48.962;8.342;2022-12-18T11:15:27;-3.00;99.90
33825;DHT22;20127;48.962;8.342;2022-12-18T11:18:33;-3.10;99.90
33825;DHT22;20127;48.962;8.342;2022-12-18T11:21:39;-3.00;99.90
33825;DHT22;20127;48.962;8.342;2022-12-18T11:24:43;-3.00;99.90
33825;DHT22;20127;48.962;8.342;2022-12-18T11:27:48;-3.00;99.90
33825;DHT22;20127;48.962;8.342;2022-12-18T11:31:18;-2.90;99.90
33825;DHT22;20127;48.962;8.342;2022-12-18T11:34:24;-2.90;99.90
33825;DHT22;20127;48.962;8.342;2022-12-18T11:37:28;-2.80;99.90
33825;DHT22;20127;48.962;8.342;2022-12-18T11:40:35;-2.80;99.90
33825;DHT22;20127;48.962;8.342;2022-12-18T11:43:40;-2.80;99.90
33825;DHT22;20127;48.962;8.342;2022-12-18T11:46:47;-2.80;99.90
33825;DHT22;20127;48.962;8.342;2022-12-18T11:49:51;-2.70;99.90
33825;DHT22;20127;48.962;8.342;2022-12-18T11:52:53;-2.70;99.90
33825;DHT22;20127;48.962;8.342;2022-12-18T11:56:03;-2.60;99.90
33825;DHT22;20127;48.962;8.342;2022-12-18T11:59:14;-2.50;99.90
33825;DHT22;20127;48.962;8.342;2022-12-18T12:02:35;-1.90;99.90
33825;DHT22;20127;48.962;8.342;2022-12-18T12:05:58;-1.60;99.90
33825;DHT22;20127;48.962;8.342;2022-12-18T12:09:11;-1.70;99.90
33825;DHT22;20127;48.962;8.342;2022-12-18T12:12:27;-2.00;99.90
33825;DHT22;20127;48.962;8.342;2022-12-18T12:15:53;-2.20;99.90
33825;DHT22;20127;48.962;8.342;2022-12-18T12:19:13;-2.50;99.90
33825;DHT22;20127;48.962;8.342;2022-12-18T12:22:24;-2.60;99.90
33825;DHT22;20127;48.962;8.342;2022-12-18T12:25:33;-2.50;99.90
33825;DHT22;20127;48.962;8.342;2022-12-18T12:28:57;-2.40;99.90
33825;DHT22;20127;48.962;8.342;2022-12-18T12:32:07;-2.20;99.90
33825;DHT22;20127;48.962;8.342;2022-12-18T12:35:23;-2.00;99.90
33825;DHT22;20127;48.962;8.342;2022-12-18T12:38:31;-1.60;99.90
33825;DHT22;20127;48.962;8.342;2022-12-18T12:41:37;-1.30;99.90
33825;DHT22;20127;48.962;8.342;2022-12-18T12:45:16;-1.00;99.90
33825;DHT22;20127;48.962;8.342;2022-12-18T12:48:32;-0.90;99.90
33825;DHT22;20127;48.962;8.342;2022-12-18T12:51:36;-0.90;99.90
33825;DHT22;20127;48.962;8.342;2022-12-18T12:54:38;-0.80;99.90
33825;DHT22;20127;48.962;8.342;2022-12-18T12:57:45;-0.70;99.90
33825;DHT22;20127;48.962;8.342;2022-12-18T13:01:04;-0.70;99.90
33825;DHT22;20127;48.962;8.342;2022-12-18T13:04:18;-0.60;99.90
33825;DHT22;20127;48.962;8.342;2022-12-18T13:07:27;-0.60;99.90
33825;DHT22;20127;48.962;8.342;2022-12-18T13:10:35;-0.70;99.90
33825;DHT22;20127;48.962;8.342;2022-12-18T13:13:49;-0.70;99.90
33825;DHT22;20127;48.962;8.342;2022-12-18T13:16:51;-0.70;99.90
33825;DHT22;20127;48.962;8.342;2022-12-18T13:20:05;-0.70;99.90
33825;DHT22;20127;48.962;8.342;2022-12-18T13:23:27;-0.80;99.90
33825;DHT22;20127;48.962;8.342;2022-12-18T13:26:31;-0.90;99.90
33825;DHT22;20127;48.962;8.342;2022-12-18T13:29:43;-1.00;99.90
33825;DHT22;20127;48.962;8.342;2022-12-18T13:32:47;-1.10;99.90
33825;DHT22;20127;48.962;8.342;2022-12-18T13:35:52;-1.20;99.90
33825;DHT22;20127;48.962;8.342;2022-12-18T13:42:39;-1.20;99.90
33825;DHT22;20127;48.962;8.342;2022-12-18T13:46:17;-1.20;99.90
33825;DHT22;20127;48.962;8.342;2022-12-18T13:49:24;-1.20;99.90
33825;DHT22;20127;48.962;8.342;2022-12-18T13:52:28;-1.10;99.90
33825;DHT22;20127;48.962;8.342;2022-12-18T13:55:34;-1.10;99.90
33825;DHT22;20127;48.962;8.342;2022-12-18T13:58:37;-1.10;99.90
33825;DHT22;20127;48.962;8.342;2022-12-18T14:01:46;-1.10;99.90
33825;DHT22;20127;48.962;8.342;2022-12-18T14:04:50;-1.00;99.90
33825;DHT22;20127;48.962;8.342;2022-12-18T14:07:53;-1.00;99.90
33825;DHT22;20127;48.962;8.342;2022-12-18T14:10:56;-1.10;99.90
33825;DHT22;20127;48.962;8.342;2022-12-18T14:13:58;-1.10;99.90
33825;DHT22;20127;48.962;8.342;2022-12-18T14:17:01;-1.10;99.90
33825;DHT22;20127;48.962;8.342;2022-12-18T14:20:13;-1.20;99.90
33825;DHT22;20127;48.962;8.342;2022-12-18T14:23:28;-1.20;99.90
33825;DHT22;20127;48.962;8.342;2022-12-18T14:26:31;-1.30;99.90
33825;DHT22;20127;48.962;8.342;2022-12-18T14:29:34;-1.30;99.90
33825;DHT22;20127;48.962;8.342;2022-12-18T14:32:36;-1.30;99.90
33825;DHT22;20127;48.962;8.342;2022-12-18T14:35:41;-1.40;99.90
33825;DHT22;20127;48.962;8.342;2022-12-18T14:38:49;-1.40;99.90
33825;DHT22;20127;48.962;8.342;2022-12-18T14:41:51;-1.60;99.90
33825;DHT22;20127;48.962;8.342;2022-12-18T14:48:37;-1.80;99.90
33825;DHT22;20127;48.962;8.342;2022-12-18T14:51:47;-1.80;99.90
33825;DHT22;20127;48.962;8.342;2022-12-18T14:54:49;-1.90;99.90
33825;DHT22;20127;48.962;8.342;2022-12-18T14:57:53;-2.00;99.90
33825;DHT22;20127;48.962;8.342;2022-12-18T15:00:56;-2.10;99.90
33825;DHT22;20127;48.962;8.342;2022-12-18T15:03:59;-2.20;99.90
33825;DHT22;20127;48.962;8.342;2022-12-18T15:10:13;-2.30;99.90
33825;DHT22;20127;48.962;8.342;2022-12-18T15:13:20;-2.40;99.90
33825;DHT22;20127;48.962;8.342;2022-12-18T15:16:22;-2.30;99.90
33825;DHT22;20127;48.962;8.342;2022-12-18T15:19:34;-2.20;99.90
33825;DHT22;20127;48.962;8.342;2022-12-18T15:22:37;-2.10;99.90
33825;DHT22;20127;48.962;8.342;2022-12-18T15:25:40;-2.20;99.90
33825;DHT22;20127;48.962;8.342;2022-12-18T15:28:46;-2.40;99.90
33825;DHT22;20127;48.962;8.342;2022-12-18T15:31:59;-2.40;99.90
33825;DHT22;20127;48.962;8.342;2022-12-18T15:35:14;-2.60;99.90
33825;DHT22;20127;48.962;8.342;2022-12-18T15:38:17;-2.70;99.90
33825;DHT22;20127;48.962;8.342;2022-12-18T15:41:21;-2.80;99.90
33825;DHT22;20127;48.962;8.342;2022-12-18T15:44:24;-2.90;99.90
33825;DHT22;20127;48.962;8.342;2022-12-18T15:47:25;-3.00;99.90
33825;DHT22;20127;48.962;8.342;2022-12-18T15:50:28;-3.10;99.90
33825;DHT22;20127;48.962;8.342;2022-12-18T15:53:32;-3.10;99.90
33825;DHT22;20127;48.962;8.342;2022-12-18T15:56:36;-3.20;99.90
33825;DHT22;20127;48.962;8.342;2022-12-18T15:59:56;-3.20;99.90
33825;DHT22;20127;48.962;8.342;2022-12-18T16:02:58;-3.20;99.90
33825;DHT22;20127;48.962;8.342;2022-12-18T16:06:00;-3.20;99.90
33825;DHT22;20127;48.962;8.342;2022-12-18T16:09:02;-3.20;99.90
33825;DHT22;20127;48.962;8.342;2022-12-18T16:12:06;-3.30;99.90
33825;DHT22;20127;48.962;8.342;2022-12-18T16:15:11;-3.30;99.90
33825;DHT22;20127;48.962;8.342;2022-12-18T16:18:13;-3.30;99.90
33825;DHT22;20127;48.962;8.342;2022-12-18T16:21:15;-3.30;99.90
33825;DHT22;20127;48.962;8.342;2022-12-18T16:24:18;-3.20;99.90
33825;DHT22;20127;48.962;8.342;2022-12-18T16:27:24;-3.30;99.90
33825;DHT22;20127;48.962;8.342;2022-12-18T16:30:28;-3.30;99.90
33825;DHT22;20127;48.962;8.342;2022-12-18T16:33:31;-3.30;99.90
33825;DHT22;20127;48.962;8.342;2022-12-18T16:36:32;-3.30;99.90
33825;DHT22;20127;48.962;8.342;2022-12-18T16:39:35;-3.30;99.90
33825;DHT22;20127;48.962;8.342;2022-12-18T16:42:40;-3.30;99.90
33825;DHT22;20127;48.962;8.342;2022-12-18T16:45:41;-3.40;99.90
33825;DHT22;20127;48.962;8.342;2022-12-18T16:48:43;-3.40;99.90
33825;DHT22;20127;48.962;8.342;2022-12-18T16:51:45;-3.40;99.90
33825;DHT22;20127;48.962;8.342;2022-12-18T16:54:47;-3.40;99.90
33825;DHT22;20127;48.962;8.342;2022-12-18T16:57:50;-3.30;99.90
33825;DHT22;20127;48.962;8.342;2022-12-18T17:00:52;-3.40;99.90
33825;DHT22;20127;48.962;8.342;2022-12-18T17:03:55;-3.40;99.90
33825;DHT22;20127;48.962;8.342;2022-12-18T17:06:57;-3.50;99.90
33825;DHT22;20127;48.962;8.342;2022-12-18T17:10:00;-3.50;99.90
33825;DHT22;20127;48.962;8.342;2022-12-18T17:13:04;-3.50;99.90
33825;DHT22;20127;48.962;8.342;2022-12-18T17:16:09;-3.50;99.90
33825;DHT22;20127;48.962;8.342;2022-12-18T17:19:11;-3.60;99.90
33825;DHT22;20127;48.962;8.342;2022-12-18T17:22:14;-3.60;99.90
33825;DHT22;20127;48.962;8.342;2022-12-18T17:25:16;-3.50;99.90
33825;DHT22;20127;48.962;8.342;2022-12-18T17:28:23;-3.10;99.90
33825;DHT22;20127;48.962;8.342;2022-12-18T17:31:27;-2.80;99.90
33825;DHT22;20127;48.962;8.342;2022-12-18T17:34:29;-2.40;99.90
33825;DHT22;20127;48.962;8.342;2022-12-18T17:37:31;-2.40;99.90
33825;DHT22;20127;48.962;8.342;2022-12-18T17:40:33;-2.70;99.90
33825;DHT22;20127;48.962;8.342;2022-12-18T17:43:37;-2.90;99.90
33825;DHT22;20127;48.962;8.342;2022-12-18T17:46:45;-3.10;99.90
33825;DHT22;20127;48.962;8.342;2022-12-18T17:49:47;-3.20;99.90
33825;DHT22;20127;48.962;8.342;2022-12-18T17:52:48;-3.20;99.90
33825;DHT22;20127;48.962;8.342;2022-12-18T17:55:53;-3.30;99.90
33825;DHT22;20127;48.962;8.342;2022-12-18T17:58:56;-3.40;99.90
33825;DHT22;20127;48.962;8.342;2022-12-18T18:01:58;-3.40;99.90
33825;DHT22;20127;48.962;8.342;2022-12-18T18:05:00;-3.40;99.90
33825;DHT22;20127;48.962;8.342;2022-12-18T18:08:02;-3.40;99.90
33825;DHT22;20127;48.962;8.342;2022-12-18T18:11:06;-3.40;99.90
33825;DHT22;20127;48.962;8.342;2022-12-18T18:14:27;-2.70;99.90
33825;DHT22;20127;48.962;8.342;2022-12-18T18:17:29;-2.60;99.90
33825;DHT22;20127;48.962;8.342;2022-12-18T18:20:32;-2.80;99.90
33825;DHT22;20127;48.962;8.342;2022-12-18T18:23:35;-2.90;99.90
33825;DHT22;20127;48.962;8.342;2022-12-18T18:26:44;-2.90;99.90
33825;DHT22;20127;48.962;8.342;2022-12-18T18:33:55;-3.00;99.90
33825;DHT22;20127;48.962;8.342;2022-12-18T18:36:57;-3.20;99.90
33825;DHT22;20127;48.962;8.342;2022-12-18T18:40:03;-3.30;99.90
33825;DHT22;20127;48.962;8.342;2022-12-18T18:43:05;-3.30;99.90
33825;DHT22;20127;48.962;8.342;2022-12-18T18:46:11;-3.40;99.90
33825;DHT22;20127;48.962;8.342;2022-12-18T18:49:14;-3.40;99.90
33825;DHT22;20127;48.962;8.342;2022-12-18T18:52:16;-3.40;99.90
33825;DHT22;20127;48.962;8.342;2022-12-18T18:55:20;-3.40;99.90
33825;DHT22;20127;48.962;8.342;2022-12-18T18:58:25;-3.40;99.90
33825;DHT22;20127;48.962;8.342;2022-12-18T19:01:30;-3.40;99.90
33825;DHT22;20127;48.962;8.342;2022-12-18T19:04:32;-3.40;99.90
33825;DHT22;20127;48.962;8.342;2022-12-18T19:07:36;-3.40;99.90
33825;DHT22;20127;48.962;8.342;2022-12-18T19:10:40;-3.40;99.90
33825;DHT22;20127;48.962;8.342;2022-12-18T19:13:59;-3.40;99.90
33825;DHT22;20127;48.962;8.342;2022-12-18T19:17:07;-3.40;99.90
33825;DHT22;20127;48.962;8.342;2022-12-18T19:20:11;-3.40;99.90
33825;DHT22;20127;48.962;8.342;2022-12-18T19:23:14;-3.40;99.90
33825;DHT22;20127;48.962;8.342;2022-12-18T19:26:17;-3.40;99.90
33825;DHT22;20127;48.962;8.342;2022-12-18T19:29:19;-3.30;99.90
33825;DHT22;20127;48.962;8.342;2022-12-18T19:35:53;-3.20;99.90
33825;DHT22;20127;48.962;8.342;2022-12-18T19:38:59;-3.20;99.90
33825;DHT22;20127;48.962;8.342;2022-12-18T19:42:01;-3.10;99.90
33825;DHT22;20127;48.962;8.342;2022-12-18T19:45:03;-3.10;99.90
33825;DHT22;20127;48.962;8.342;2022-12-18T19:48:06;-3.10;99.90